sensor_id;sensor_type;location;lat;lon;timestamp;temperature;humidity
3134;DHT22;1577;49.912;10.924;2023-04-03T00:38:50;2.60;99.90
3134;DHT22;1577;49.912;10.924;2023-04-03T00:43:42;3.00;99.90
3134;DHT22;1577;49.912;10.924;2023-04-03T00:46:07;3.00;99.90
3134;DHT22;1577;49.912;10.924;2023-04-03T00:48:46;3.00;99.90
3134;DHT22;1577;49.912;10.924;2023-04-03T00:56:14;3.10;99.90
3134;DHT22;1577;49.912;10.924;2023-04-03T01:08:31;3.20;99.90
3134;DHT22;1577;49.912;10.924;2023-04-03T01:10:57;3.30;99.90
3134;DHT22;1577;49.912;10.924;2023-04-03T01:13:31;3.30;99.90
3134;DHT22;1577;49.912;10.924;2023-04-03T01:16:02;3.30;99.90
3134;DHT22;1577;49.912;10.924;2023-04-03T01:18:29;3.30;99.90
3134;DHT22;1577;49.912;10.924;2023-04-03T01:25:54;3.30;99.90
3134;DHT22;1577;49.912;10.924;2023-04-03T01:28:28;3.30;99.90
3134;DHT22;1577;49.912;10.924;2023-04-03T01:31:26;3.50;99.90
3134;DHT22;1577;49.912;10.924;2023-04-03T01:33:52;3.50;99.90
3134;DHT22;1577;49.912;10.924;2023-04-03T01:36:24;3.50;99.90
3134;DHT22;1577;49.912;10.924;2023-04-03T01:38:51;3.50;99.90
3134;DHT22;1577;49.912;10.924;2023-04-03T01:41:17;3.50;99.90
3134;DHT22;1577;49.912;10.924;2023-04-03T01:43:43;3.60;99.90
3134;DHT22;1577;49.912;10.924;2023-04-03T01:46:08;3.60;99.90
3134;DHT22;1577;49.912;10.924;2023-04-03T01:48:34;3.60;99.90
3134;DHT22;1577;49.912;10.924;2023-04-03T01:51:00;3.70;99.90
3134;DHT22;1577;49.912;10.924;2023-04-03T01:53:26;3.70;99.90
3134;DHT22;1577;49.912;10.924;2023-04-03T01:55:51;3.70;99.90
3134;DHT22;1577;49.912;10.924;2023-04-03T01:58:17;3.70;99.90
3134;DHT22;1577;49.912;10.924;2023-04-03T02:00:42;3.70;99.90
3134;DHT22;1577;49.912;10.924;2023-04-03T02:03:08;3.70;99.90
3134;DHT22;1577;49.912;10.924;2023-04-03T02:05:34;3.60;99.90
3134;DHT22;1577;49.912;10.924;2023-04-03T02:07:59;3.60;99.90
3134;DHT22;1577;49.912;10.924;2023-04-03T02:10:25;3.60;99.90
3134;DHT22;1577;49.912;10.924;2023-04-03T02:15:17;3.70;99.90
3134;DHT22;1577;49.912;10.924;2023-04-03T02:17:43;3.60;99.90
3134;DHT22;1577;49.912;10.924;2023-04-03T02:20:09;3.70;99.90
3134;DHT22;1577;49.912;10.924;2023-04-03T02:22:35;3.70;99.90
3134;DHT22;1577;49.912;10.924;2023-04-03T02:25:01;3.60;99.90
3134;DHT22;1577;49.912;10.924;2023-04-03T02:27:27;3.70;99.90
3134;DHT22;1577;49.912;10.924;2023-04-03T02:29:52;3.60;99.90
3134;DHT22;1577;49.912;10.924;2023-04-03T02:32:18;3.60;99.90
3134;DHT22;1577;49.912;10.924;2023-04-03T02:34:44;3.60;99.90
3134;DHT22;1577;49.912;10.924;2023-04-03T02:37:09;3.60;99.90
3134;DHT22;1577;49.912;10.924;2023-04-03T02:39:35;3.60;99.90
3134;DHT22;1577;49.912;10.924;2023-04-03T02:42:01;3.60;99.90
3134;DHT22;1577;49.912;10.924;2023-04-03T02:44:26;3.60;99.90
3134;DHT22;1577;49.912;10.924;2023-04-03T02:46:52;3.60;99.90
3134;DHT22;1577;49.912;10.924;2023-04-03T02:49:18;3.60;99.90
3134;DHT22;1577;49.912;10.924;2023-04-03T02:51:43;3.60;99.90
3134;DHT22;1577;49.912;10.924;2023-04-03T02:54:09;3.50;99.90
3134;DHT22;1577;49.912;10.924;2023-04-03T02:56:35;3.50;99.90
3134;DHT22;1577;49.912;10.924;2023-04-03T02:59:00;3.50;99.90
3134;DHT22;1577;49.912;10.924;2023-04-03T03:01:26;3.50;99.90
3134;DHT22;1577;49.912;10.924;2023-04-03T03:03:54;3.50;99.90
3134;DHT22;1577;49.912;10.924;2023-04-03T03:06:20;3.40;99.90
3134;DHT22;1577;49.912;10.924;2023-04-03T03:08:45;3.40;99.90
3134;DHT22;1577;49.912;10.924;2023-04-03T03:11:11;3.40;99.90
3134;DHT22;1577;49.912;10.924;2023-04-03T03:13:37;3.30;99.90
3134;DHT22;1577;49.912;10.924;2023-04-03T03:16:03;3.40;99.90
3134;DHT22;1577;49.912;10.924;2023-04-03T03:18:29;3.30;99.90
3134;DHT22;1577;49.912;10.924;2023-04-03T03:20:59;3.30;99.90
3134;DHT22;1577;49.912;10.924;2023-04-03T03:23:26;3.30;99.90
3134;DHT22;1577;49.912;10.924;2023-04-03T03:25:56;3.30;99.90
3134;DHT22;1577;49.912;10.924;2023-04-03T03:28:23;3.30;99.90
3134;DHT22;1577;49.912;10.924;2023-04-03T06:07:08;3.30;99.90
3134;DHT22;1577;49.912;10.924;2023-04-03T06:09:36;5.40;99.90
3134;DHT22;1577;49.912;10.924;2023-04-03T06:12:02;6.20;99.90
3134;DHT22;1577;49.912;10.924;2023-04-03T06:14:27;6.90;99.90
3134;DHT22;1577;49.912;10.924;2023-04-03T06:21:46;7.60;99.90
3134;DHT22;1577;49.912;10.924;2023-04-03T06:24:15;7.70;99.90
3134;DHT22;1577;49.912;10.924;2023-04-03T06:26:41;8.00;99.90
3134;DHT22;1577;49.912;10.924;2023-04-03T06:29:07;7.70;99.90
3134;DHT22;1577;49.912;10.924;2023-04-03T06:31:32;7.40;99.90
3134;DHT22;1577;49.912;10.924;2023-04-03T06:33:58;7.60;99.90
3134;DHT22;1577;49.912;10.924;2023-04-03T06:43:43;7.60;99.90
3134;DHT22;1577;49.912;10.924;2023-04-03T06:46:20;6.50;99.90
3134;DHT22;1577;49.912;10.924;2023-04-03T07:13:11;6.60;99.90
3134;DHT22;1577;49.912;10.924;2023-04-03T07:15:37;5.50;99.90
3134;DHT22;1577;49.912;10.924;2023-04-03T07:18:02;6.30;99.90
3134;DHT22;1577;49.912;10.924;2023-04-03T07:20:29;7.10;99.90
3134;DHT22;1577;49.912;10.924;2023-04-03T07:22:55;7.70;99.90
3134;DHT22;1577;49.912;10.924;2023-04-03T07:25:20;8.00;99.90
3134;DHT22;1577;49.912;10.924;2023-04-03T07:27:47;8.40;99.90
3134;DHT22;1577;49.912;10.924;2023-04-03T07:30:13;8.60;99.40
3134;DHT22;1577;49.912;10.924;2023-04-03T07:32:39;8.90;98.40
3134;DHT22;1577;49.912;10.924;2023-04-03T07:35:05;9.00;98.10
3134;DHT22;1577;49.912;10.924;2023-04-03T07:37:31;9.20;97.60
3134;DHT22;1577;49.912;10.924;2023-04-03T07:39:57;9.30;97.30
3134;DHT22;1577;49.912;10.924;2023-04-03T07:42:24;9.50;97.10
3134;DHT22;1577;49.912;10.924;2023-04-03T07:44:53;9.60;96.90
3134;DHT22;1577;49.912;10.924;2023-04-03T07:47:18;9.80;96.60
3134;DHT22;1577;49.912;10.924;2023-04-03T07:49:45;10.00;96.60
3134;DHT22;1577;49.912;10.924;2023-04-03T07:52:11;9.90;96.40
3134;DHT22;1577;49.912;10.924;2023-04-03T07:54:37;9.90;96.20
3134;DHT22;1577;49.912;10.924;2023-04-03T07:57:02;10.00;95.10
3134;DHT22;1577;49.912;10.924;2023-04-03T07:59:28;10.00;95.30
3134;DHT22;1577;49.912;10.924;2023-04-03T08:01:54;9.90;95.40
3134;DHT22;1577;49.912;10.924;2023-04-03T08:04:19;9.50;95.60
3134;DHT22;1577;49.912;10.924;2023-04-03T08:06:45;9.30;96.40
3134;DHT22;1577;49.912;10.924;2023-04-03T08:09:14;9.20;96.10
3134;DHT22;1577;49.912;10.924;2023-04-03T08:11:40;9.00;95.50
3134;DHT22;1577;49.912;10.924;2023-04-03T08:14:06;8.40;95.90
3134;DHT22;1577;49.912;10.924;2023-04-03T08:16:31;8.10;96.50
3134;DHT22;1577;49.912;10.924;2023-04-03T08:18:57;8.00;97.10
3134;DHT22;1577;49.912;10.924;2023-04-03T08:21:22;8.20;96.20
3134;DHT22;1577;49.912;10.924;2023-04-03T08:23:49;8.30;95.40
3134;DHT22;1577;49.912;10.924;2023-04-03T08:26:18;8.50;94.90
3134;DHT22;1577;49.912;10.924;2023-04-03T08:28:44;8.90;94.50
3134;DHT22;1577;49.912;10.924;2023-04-03T08:31:12;9.40;94.50
3134;DHT22;1577;49.912;10.924;2023-04-03T08:33:39;9.80;93.10
3134;DHT22;1577;49.912;10.924;2023-04-03T08:36:06;10.20;93.40
3134;DHT22;1577;49.912;10.924;2023-04-03T08:38:33;10.60;91.60
3134;DHT22;1577;49.912;10.924;2023-04-03T08:41:15;10.70;88.70
3134;DHT22;1577;49.912;10.924;2023-04-03T08:46:26;10.50;86.90
3134;DHT22;1577;49.912;10.924;2023-04-03T08:48:58;10.20;84.70
3134;DHT22;1577;49.912;10.924;2023-04-03T08:51:26;10.10;88.40
3134;DHT22;1577;49.912;10.924;2023-04-03T08:54:06;9.70;89.20
3134;DHT22;1577;49.912;10.924;2023-04-03T08:56:34;9.40;89.50
3134;DHT22;1577;49.912;10.924;2023-04-03T08:59:05;9.20;89.60
3134;DHT22;1577;49.912;10.924;2023-04-03T09:01:37;9.20;90.50
3134;DHT22;1577;49.912;10.924;2023-04-03T09:04:10;9.50;90.30
3134;DHT22;1577;49.912;10.924;2023-04-03T09:06:38;9.60;88.10
3134;DHT22;1577;49.912;10.924;2023-04-03T09:09:12;9.50;88.70
3134;DHT22;1577;49.912;10.924;2023-04-03T09:11:57;9.70;86.90
3134;DHT22;1577;49.912;10.924;2023-04-03T09:22:42;9.00;87.10
3134;DHT22;1577;49.912;10.924;2023-04-03T09:25:18;9.00;87.00
3134;DHT22;1577;49.912;10.924;2023-04-03T09:27:45;8.90;86.70
3134;DHT22;1577;49.912;10.924;2023-04-03T09:30:22;8.80;86.30
3134;DHT22;1577;49.912;10.924;2023-04-03T09:32:52;8.80;88.50
3134;DHT22;1577;49.912;10.924;2023-04-03T09:37:46;9.60;88.10
3134;DHT22;1577;49.912;10.924;2023-04-03T09:42:50;9.80;83.90
3134;DHT22;1577;49.912;10.924;2023-04-03T09:45:34;9.80;83.00
3134;DHT22;1577;49.912;10.924;2023-04-03T09:53:33;8.70;83.80
3134;DHT22;1577;49.912;10.924;2023-04-03T09:56:01;8.30;85.50
3134;DHT22;1577;49.912;10.924;2023-04-03T09:58:40;8.30;86.10
3134;DHT22;1577;49.912;10.924;2023-04-03T10:06:32;7.20;90.00
3134;DHT22;1577;49.912;10.924;2023-04-03T10:09:26;7.20;90.40
3134;DHT22;1577;49.912;10.924;2023-04-03T10:12:09;7.10;90.10
3134;DHT22;1577;49.912;10.924;2023-04-03T10:25:18;6.40;89.30
3134;DHT22;1577;49.912;10.924;2023-04-03T10:35:50;5.90;87.70
3134;DHT22;1577;49.912;10.924;2023-04-03T10:41:27;5.80;86.90
3134;DHT22;1577;49.912;10.924;2023-04-03T10:44:25;5.80;86.30
3134;DHT22;1577;49.912;10.924;2023-04-03T10:52:25;5.90;86.50
3134;DHT22;1577;49.912;10.924;2023-04-03T10:57:56;5.90;84.10
3134;DHT22;1577;49.912;10.924;2023-04-03T11:00:47;5.80;82.90
3134;DHT22;1577;49.912;10.924;2023-04-03T11:03:21;5.80;84.50
3134;DHT22;1577;49.912;10.924;2023-04-03T11:05:52;5.80;83.80
3134;DHT22;1577;49.912;10.924;2023-04-03T11:10:59;5.70;84.00
3134;DHT22;1577;49.912;10.924;2023-04-03T11:14:11;5.70;83.50
3134;DHT22;1577;49.912;10.924;2023-04-03T11:16:38;5.70;83.80
3134;DHT22;1577;49.912;10.924;2023-04-03T11:19:21;5.80;85.00
3134;DHT22;1577;49.912;10.924;2023-04-03T11:22:05;5.90;84.80
3134;DHT22;1577;49.912;10.924;2023-04-03T11:24:36;6.00;84.80
3134;DHT22;1577;49.912;10.924;2023-04-03T11:27:05;6.00;84.60
3134;DHT22;1577;49.912;10.924;2023-04-03T11:29:40;6.00;86.40
3134;DHT22;1577;49.912;10.924;2023-04-03T11:32:30;6.10;86.20
3134;DHT22;1577;49.912;10.924;2023-04-03T11:34:59;6.10;85.30
3134;DHT22;1577;49.912;10.924;2023-04-03T11:37:31;6.10;81.60
3134;DHT22;1577;49.912;10.924;2023-04-03T11:40:18;6.10;83.20
3134;DHT22;1577;49.912;10.924;2023-04-03T11:42:51;6.10;84.50
3134;DHT22;1577;49.912;10.924;2023-04-03T11:50:47;6.20;86.20
3134;DHT22;1577;49.912;10.924;2023-04-03T12:08:43;6.00;85.70
3134;DHT22;1577;49.912;10.924;2023-04-03T12:16:24;5.80;82.30
3134;DHT22;1577;49.912;10.924;2023-04-03T12:32:37;6.00;84.00
3134;DHT22;1577;49.912;10.924;2023-04-03T12:38:13;6.00;83.20
3134;DHT22;1577;49.912;10.924;2023-04-03T12:48:30;6.10;80.30
3134;DHT22;1577;49.912;10.924;2023-04-03T12:50:57;6.00;79.70
3134;DHT22;1577;49.912;10.924;2023-04-03T12:53:28;6.10;79.40
3134;DHT22;1577;49.912;10.924;2023-04-03T12:56:25;6.20;79.60
3134;DHT22;1577;49.912;10.924;2023-04-03T12:58:53;6.20;79.00
3134;DHT22;1577;49.912;10.924;2023-04-03T13:01:26;6.20;78.90
3134;DHT22;1577;49.912;10.924;2023-04-03T13:03:57;6.20;78.80
3134;DHT22;1577;49.912;10.924;2023-04-03T13:06:26;6.20;78.90
3134;DHT22;1577;49.912;10.924;2023-04-03T13:08:55;6.20;80.50
3134;DHT22;1577;49.912;10.924;2023-04-03T13:11:27;6.30;80.00
3134;DHT22;1577;49.912;10.924;2023-04-03T13:14:01;6.40;81.10
3134;DHT22;1577;49.912;10.924;2023-04-03T13:16:28;6.30;82.50
3134;DHT22;1577;49.912;10.924;2023-04-03T13:18:55;6.40;82.50
3134;DHT22;1577;49.912;10.924;2023-04-03T13:21:26;6.30;82.90
3134;DHT22;1577;49.912;10.924;2023-04-03T13:23:55;6.30;84.00
3134;DHT22;1577;49.912;10.924;2023-04-03T13:26:23;6.40;82.40
3134;DHT22;1577;49.912;10.924;2023-04-03T13:28:52;6.40;82.10
3134;DHT22;1577;49.912;10.924;2023-04-03T13:31:35;6.40;82.80
3134;DHT22;1577;49.912;10.924;2023-04-03T13:34:12;6.50;82.20
3134;DHT22;1577;49.912;10.924;2023-04-03T13:37:01;6.50;81.00
3134;DHT22;1577;49.912;10.924;2023-04-03T13:39:27;6.50;79.50
3134;DHT22;1577;49.912;10.924;2023-04-03T13:41:59;6.40;80.30
3134;DHT22;1577;49.912;10.924;2023-04-03T13:44:35;6.40;80.00
3134;DHT22;1577;49.912;10.924;2023-04-03T13:47:18;6.40;78.40
3134;DHT22;1577;49.912;10.924;2023-04-03T13:50:24;6.50;79.40
3134;DHT22;1577;49.912;10.924;2023-04-03T13:53:13;6.50;80.90
3134;DHT22;1577;49.912;10.924;2023-04-03T13:58:30;6.70;80.40
3134;DHT22;1577;49.912;10.924;2023-04-03T14:01:19;6.60;80.00
3134;DHT22;1577;49.912;10.924;2023-04-03T14:03:55;6.70;80.70
3134;DHT22;1577;49.912;10.924;2023-04-03T14:06:21;6.70;81.30
3134;DHT22;1577;49.912;10.924;2023-04-03T14:08:47;6.70;79.30
3134;DHT22;1577;49.912;10.924;2023-04-03T14:11:15;6.70;79.70
3134;DHT22;1577;49.912;10.924;2023-04-03T14:13:42;6.70;79.70
3134;DHT22;1577;49.912;10.924;2023-04-03T14:16:11;6.80;80.50
3134;DHT22;1577;49.912;10.924;2023-04-03T14:18:37;6.90;80.90
3134;DHT22;1577;49.912;10.924;2023-04-03T14:21:02;7.00;82.60
3134;DHT22;1577;49.912;10.924;2023-04-03T14:23:28;7.20;81.30
3134;DHT22;1577;49.912;10.924;2023-04-03T14:25:54;7.20;81.50
3134;DHT22;1577;49.912;10.924;2023-04-03T14:28:22;7.20;79.90
3134;DHT22;1577;49.912;10.924;2023-04-03T14:30:50;6.90;79.40
3134;DHT22;1577;49.912;10.924;2023-04-03T14:33:19;6.80;78.70
3134;DHT22;1577;49.912;10.924;2023-04-03T14:35:45;6.80;78.60
3134;DHT22;1577;49.912;10.924;2023-04-03T14:38:26;6.90;79.60
3134;DHT22;1577;49.912;10.924;2023-04-03T14:40:54;6.90;78.60
3134;DHT22;1577;49.912;10.924;2023-04-03T14:43:20;6.80;78.30
3134;DHT22;1577;49.912;10.924;2023-04-03T14:45:47;6.80;79.80
3134;DHT22;1577;49.912;10.924;2023-04-03T14:48:18;6.90;79.60
3134;DHT22;1577;49.912;10.924;2023-04-03T14:50:45;6.80;79.10
3134;DHT22;1577;49.912;10.924;2023-04-03T14:53:12;6.80;80.10
3134;DHT22;1577;49.912;10.924;2023-04-03T14:55:44;6.80;79.70
3134;DHT22;1577;49.912;10.924;2023-04-03T14:58:16;6.70;79.40
3134;DHT22;1577;49.912;10.924;2023-04-03T15:00:43;6.70;79.40
3134;DHT22;1577;49.912;10.924;2023-04-03T15:03:21;6.80;79.30
3134;DHT22;1577;49.912;10.924;2023-04-03T15:05:48;6.80;78.10
3134;DHT22;1577;49.912;10.924;2023-04-03T15:08:23;6.80;78.70
3134;DHT22;1577;49.912;10.924;2023-04-03T15:10:50;6.90;79.60
3134;DHT22;1577;49.912;10.924;2023-04-03T15:13:18;6.90;79.30
3134;DHT22;1577;49.912;10.924;2023-04-03T15:15:44;7.00;79.50
3134;DHT22;1577;49.912;10.924;2023-04-03T15:18:24;7.00;78.90
3134;DHT22;1577;49.912;10.924;2023-04-03T15:20:54;6.80;78.40
3134;DHT22;1577;49.912;10.924;2023-04-03T15:23:21;6.70;78.80
3134;DHT22;1577;49.912;10.924;2023-04-03T15:25:52;6.60;79.20
3134;DHT22;1577;49.912;10.924;2023-04-03T15:28:37;6.60;79.70
3134;DHT22;1577;49.912;10.924;2023-04-03T15:31:04;6.60;79.80
3134;DHT22;1577;49.912;10.924;2023-04-03T15:33:30;6.60;80.00
3134;DHT22;1577;49.912;10.924;2023-04-03T15:35:56;6.60;79.60
3134;DHT22;1577;49.912;10.924;2023-04-03T15:38:22;6.60;78.50
3134;DHT22;1577;49.912;10.924;2023-04-03T15:40:47;6.60;79.30
3134;DHT22;1577;49.912;10.924;2023-04-03T15:43:14;6.60;79.10
3134;DHT22;1577;49.912;10.924;2023-04-03T15:45:40;6.50;78.50
3134;DHT22;1577;49.912;10.924;2023-04-03T15:48:06;6.50;78.80
3134;DHT22;1577;49.912;10.924;2023-04-03T15:50:33;6.50;78.40
3134;DHT22;1577;49.912;10.924;2023-04-03T15:52:59;6.60;80.00
3134;DHT22;1577;49.912;10.924;2023-04-03T15:55:29;6.70;80.30
3134;DHT22;1577;49.912;10.924;2023-04-03T15:57:55;6.60;80.40
3134;DHT22;1577;49.912;10.924;2023-04-03T16:00:21;6.50;80.10
3134;DHT22;1577;49.912;10.924;2023-04-03T16:02:48;6.30;79.20
3134;DHT22;1577;49.912;10.924;2023-04-03T16:05:16;6.20;80.50
3134;DHT22;1577;49.912;10.924;2023-04-03T16:07:43;6.10;80.40
3134;DHT22;1577;49.912;10.924;2023-04-03T16:10:10;6.00;79.70
3134;DHT22;1577;49.912;10.924;2023-04-03T16:12:36;6.00;79.60
3134;DHT22;1577;49.912;10.924;2023-04-03T16:15:03;6.00;78.30
3134;DHT22;1577;49.912;10.924;2023-04-03T16:17:28;5.90;79.90
3134;DHT22;1577;49.912;10.924;2023-04-03T16:19:55;5.90;80.40
3134;DHT22;1577;49.912;10.924;2023-04-03T16:22:22;5.70;80.30
3134;DHT22;1577;49.912;10.924;2023-04-03T16:24:49;5.70;80.80
3134;DHT22;1577;49.912;10.924;2023-04-03T16:27:15;5.60;81.20
3134;DHT22;1577;49.912;10.924;2023-04-03T16:29:41;5.60;81.20
3134;DHT22;1577;49.912;10.924;2023-04-03T16:32:07;5.60;81.80
3134;DHT22;1577;49.912;10.924;2023-04-03T16:34:32;5.60;81.20
3134;DHT22;1577;49.912;10.924;2023-04-03T16:36:59;5.60;81.60
3134;DHT22;1577;49.912;10.924;2023-04-03T16:39:24;5.60;79.90
3134;DHT22;1577;49.912;10.924;2023-04-03T16:41:50;5.50;79.70
3134;DHT22;1577;49.912;10.924;2023-04-03T16:44:16;5.40;80.00
3134;DHT22;1577;49.912;10.924;2023-04-03T16:46:42;5.30;80.40
3134;DHT22;1577;49.912;10.924;2023-04-03T16:49:07;5.30;82.10
3134;DHT22;1577;49.912;10.924;2023-04-03T16:51:33;5.30;82.80
3134;DHT22;1577;49.912;10.924;2023-04-03T16:53:59;5.30;82.80
3134;DHT22;1577;49.912;10.924;2023-04-03T16:56:24;5.30;83.00
3134;DHT22;1577;49.912;10.924;2023-04-03T16:58:52;5.30;83.30
3134;DHT22;1577;49.912;10.924;2023-04-03T17:01:20;5.40;83.70
3134;DHT22;1577;49.912;10.924;2023-04-03T17:03:47;5.40;84.10
3134;DHT22;1577;49.912;10.924;2023-04-03T17:06:16;5.40;83.50
3134;DHT22;1577;49.912;10.924;2023-04-03T17:08:43;5.30;83.30
3134;DHT22;1577;49.912;10.924;2023-04-03T17:11:08;5.20;82.30
3134;DHT22;1577;49.912;10.924;2023-04-03T17:13:34;5.20;82.70
3134;DHT22;1577;49.912;10.924;2023-04-03T17:16:02;5.10;83.00
3134;DHT22;1577;49.912;10.924;2023-04-03T17:18:30;5.10;83.00
3134;DHT22;1577;49.912;10.924;2023-04-03T17:20:56;5.00;83.10
3134;DHT22;1577;49.912;10.924;2023-04-03T17:23:24;5.00;83.20
3134;DHT22;1577;49.912;10.924;2023-04-03T17:25:50;4.90;82.50
3134;DHT22;1577;49.912;10.924;2023-04-03T17:28:16;4.90;82.00
3134;DHT22;1577;49.912;10.924;2023-04-03T17:30:42;4.80;82.30
3134;DHT22;1577;49.912;10.924;2023-04-03T17:33:08;4.70;82.70
3134;DHT22;1577;49.912;10.924;2023-04-03T17:35:34;4.70;82.50
3134;DHT22;1577;49.912;10.924;2023-04-03T17:38:00;4.60;83.20
3134;DHT22;1577;49.912;10.924;2023-04-03T17:40:25;4.50;83.50
3134;DHT22;1577;49.912;10.924;2023-04-03T17:42:51;4.50;84.00
3134;DHT22;1577;49.912;10.924;2023-04-03T17:45:17;4.40;83.80
3134;DHT22;1577;49.912;10.924;2023-04-03T17:47:42;4.40;84.00
3134;DHT22;1577;49.912;10.924;2023-04-03T17:50:11;4.30;84.40
3134;DHT22;1577;49.912;10.924;2023-04-03T17:52:36;4.30;84.80
3134;DHT22;1577;49.912;10.924;2023-04-03T17:55:02;4.30;85.40
